Primos, Pennsylvania
Current Conditions -  °F | °C
As of 1:54 PM on Monday 20 Oct 2014 (Local Time) from KPHL Reporting Station
Broken Clouds Broken Clouds  
Wind Chill: 62°   Ceiling: 26000
Heat Index: 62°   Visibility: 10mi
Dew Point: 37°   Wind: 10mph
Humidity: 39%   Direction: 200°SSW
Pressure: 30.03"   Gusts: 21mph
Location:  39.92°N, 75.3°W
Report Text: KPHL 201754Z 20009G18KT 10SM FEW055 FEW200 BKN260 17/03 A3003 RMK AO2 SLP168 T01670028 10167 20050 58034
Loading
Personal Weather Stations






























Interactive Weather Map
Tropical Storm Tracking
New forecast layout! Learn more

10-Day Weather Forecast

Advertisements
Track Severe Weather on mobile